createdAt,value
2022-12-06T00:00:38.167Z,117.10
2022-12-06T00:03:01.784Z,104.83
2022-12-06T00:05:25.400Z,116.60
2022-12-06T00:07:50.174Z,98.40
2022-12-06T00:10:14.034Z,94.00
2022-12-06T00:12:37.587Z,95.90
2022-12-06T00:15:02.618Z,77.77
2022-12-06T00:17:26.143Z,74.73
2022-12-06T00:19:49.692Z,78.30
2022-12-06T00:22:13.239Z,79.70
2022-12-06T00:24:37.007Z,72.33
2022-12-06T00:27:00.556Z,68.83
2022-12-06T00:29:25.354Z,49.20
2022-12-06T00:31:51.370Z,47.73
2022-12-06T00:34:15.098Z,49.60
2022-12-06T00:36:41.131Z,37.07
2022-12-06T00:39:07.738Z,45.90
2022-12-06T00:41:31.326Z,40.40
2022-12-06T00:43:55.510Z,39.50
2022-12-06T00:46:21.429Z,41.00
2022-12-06T00:48:46.943Z,38.53
2022-12-06T00:51:10.533Z,40.30
2022-12-06T00:53:34.114Z,43.40
2022-12-06T00:55:57.704Z,40.03
2022-12-06T00:58:21.198Z,47.20
2022-12-06T01:00:45.045Z,47.13
2022-12-06T01:03:09.114Z,53.40
2022-12-06T01:05:34.347Z,51.27
2022-12-06T01:07:58.257Z,48.80
2022-12-06T01:10:21.923Z,46.93
2022-12-06T01:12:45.653Z,45.33
2022-12-06T01:15:10.947Z,55.47
2022-12-06T01:17:35.496Z,54.27
2022-12-06T01:19:59.300Z,49.63
2022-12-06T01:22:24.548Z,61.73
2022-12-06T01:24:49.066Z,51.60
2022-12-06T01:27:12.588Z,50.93
2022-12-06T01:29:36.266Z,46.93
2022-12-06T01:31:59.864Z,48.43
2022-12-06T01:34:23.413Z,53.33
2022-12-06T01:36:47.164Z,48.03
2022-12-06T01:39:12.792Z,44.00
2022-12-06T01:41:36.340Z,41.60
2022-12-06T01:44:00.285Z,42.83
2022-12-06T01:46:32.172Z,36.53
2022-12-06T01:49:16.696Z,49.17
2022-12-06T01:51:44.815Z,40.17
2022-12-06T01:54:13.248Z,42.47
2022-12-06T01:56:37.852Z,42.00
2022-12-06T01:59:01.960Z,34.67
2022-12-06T02:01:27.217Z,41.27
2022-12-06T02:03:50.848Z,37.67
2022-12-06T02:06:14.507Z,38.97
2022-12-06T02:08:39.248Z,49.67
2022-12-06T02:11:05.766Z,44.93
2022-12-06T02:13:29.724Z,37.80
2022-12-06T02:16:02.164Z,39.73
2022-12-06T02:18:36.251Z,41.07
2022-12-06T02:21:11.937Z,41.77
2022-12-06T02:24:07.994Z,38.27
2022-12-06T02:26:40.957Z,33.73
2022-12-06T02:29:59.818Z,35.47
2022-12-06T02:32:32.454Z,36.40
2022-12-06T02:35:03.970Z,34.90
2022-12-06T02:37:34.911Z,36.70
2022-12-06T02:40:05.759Z,33.50
2022-12-06T02:42:36.589Z,31.17
2022-12-06T02:45:03.502Z,33.10
2022-12-06T02:47:35.414Z,27.93
2022-12-06T02:50:00.778Z,32.57
2022-12-06T02:52:28.387Z,35.83
2022-12-06T02:54:56.178Z,28.17
2022-12-06T02:57:21.194Z,32.97
2022-12-06T02:59:53.848Z,35.73
2022-12-06T03:02:17.734Z,35.10
2022-12-06T03:04:54.139Z,37.00
2022-12-06T03:07:38.371Z,37.13
2022-12-06T03:10:33.127Z,35.60
2022-12-06T03:13:07.755Z,32.10
2022-12-06T03:15:44.756Z,38.03
2022-12-06T03:18:17.414Z,33.17
2022-12-06T03:20:48.637Z,37.17
2022-12-06T03:23:16.988Z,34.53
2022-12-06T03:25:41.187Z,33.27
2022-12-06T03:28:07.547Z,31.93
2022-12-06T03:30:34.409Z,35.97
2022-12-06T03:32:58.547Z,35.27
2022-12-06T03:35:27.365Z,29.97
2022-12-06T03:38:05.655Z,36.37
2022-12-06T03:40:33.539Z,33.80
2022-12-06T03:42:57.747Z,37.07
2022-12-06T03:45:23.225Z,36.90
2022-12-06T03:47:56.599Z,35.97
2022-12-06T03:50:25.725Z,38.50
2022-12-06T03:52:49.408Z,41.90
2022-12-06T03:55:14.573Z,38.77
2022-12-06T03:57:38.363Z,34.90
2022-12-06T04:00:02.201Z,31.90
2022-12-06T04:02:34.958Z,31.07
2022-12-06T04:04:58.510Z,30.90
2022-12-06T04:07:22.033Z,24.87
2022-12-06T04:09:56.455Z,28.93
2022-12-06T04:12:38.665Z,30.20
2022-12-06T04:15:02.258Z,28.60
2022-12-06T04:17:43.319Z,30.30
2022-12-06T04:20:08.964Z,29.93
2022-12-06T04:22:50.016Z,27.57
2022-12-06T04:25:13.612Z,32.47
2022-12-06T04:27:56.253Z,33.83
2022-12-06T04:30:37.863Z,30.83
2022-12-06T04:33:18.875Z,30.03
2022-12-06T04:35:59.575Z,30.13
2022-12-06T04:38:42.144Z,26.90
2022-12-06T04:41:05.989Z,27.00
2022-12-06T04:43:44.728Z,22.70
2022-12-06T04:46:08.393Z,25.07
2022-12-06T04:48:31.930Z,23.30
2022-12-06T04:50:55.884Z,27.20
2022-12-06T04:53:19.773Z,23.63
2022-12-06T04:55:47.533Z,23.13
2022-12-06T04:58:11.050Z,22.10
2022-12-06T05:00:36.009Z,21.60
2022-12-06T05:02:59.548Z,22.47
2022-12-06T05:05:23.149Z,24.77
2022-12-06T05:07:46.752Z,22.23
2022-12-06T05:10:11.057Z,27.00
2022-12-06T05:12:34.560Z,26.00
2022-12-06T05:14:58.178Z,27.37
2022-12-06T05:17:23.058Z,26.60
2022-12-06T05:19:46.642Z,25.20
2022-12-06T05:22:10.145Z,22.50
2022-12-06T05:24:34.081Z,27.60
2022-12-06T05:26:57.621Z,28.10
2022-12-06T05:29:21.186Z,24.50
2022-12-06T05:31:44.811Z,25.47
2022-12-06T05:34:11.666Z,27.10
2022-12-06T05:36:35.383Z,25.43
2022-12-06T05:38:59.148Z,25.87
2022-12-06T05:41:24.117Z,23.73
2022-12-06T05:43:47.921Z,24.87
2022-12-06T05:46:11.476Z,22.83
2022-12-06T05:48:35.658Z,27.20
2022-12-06T05:51:00.665Z,24.90
2022-12-06T05:53:24.344Z,18.23
2022-12-06T05:55:48.168Z,26.10
2022-12-06T05:58:12.217Z,21.13
2022-12-06T06:00:36.635Z,18.67
2022-12-06T06:03:00.388Z,22.10
2022-12-06T06:05:24.158Z,21.77
2022-12-06T06:07:49.206Z,27.07
2022-12-06T06:10:13.177Z,26.67
2022-12-06T06:12:36.783Z,26.30
2022-12-06T06:15:00.372Z,25.80
2022-12-06T06:17:24.313Z,25.23
2022-12-06T06:19:51.423Z,22.60
2022-12-06T06:22:15.333Z,21.67
2022-12-06T06:24:43.077Z,21.80
2022-12-06T06:27:07.047Z,22.70
2022-12-06T06:29:31.055Z,23.03
2022-12-06T06:31:54.933Z,24.87
2022-12-06T06:34:18.541Z,21.97
2022-12-06T06:36:45.763Z,21.87
2022-12-06T06:39:09.682Z,23.30
2022-12-06T06:41:34.662Z,24.03
2022-12-06T06:43:58.169Z,25.07
2022-12-06T06:46:21.817Z,23.07
2022-12-06T06:48:45.396Z,25.10
2022-12-06T06:51:11.412Z,24.97
2022-12-06T06:53:35.195Z,25.00
2022-12-06T06:55:59.137Z,25.80
2022-12-06T06:58:24.463Z,24.67
2022-12-06T07:00:48.043Z,21.90
2022-12-06T07:03:16.222Z,22.10
2022-12-06T07:05:39.848Z,25.60
2022-12-06T07:08:04.231Z,19.87
2022-12-06T07:10:27.834Z,22.73
2022-12-06T07:12:54.115Z,22.83
2022-12-06T07:15:19.285Z,21.17
2022-12-06T07:17:42.827Z,22.23
2022-12-06T07:20:08.239Z,24.90
2022-12-06T07:22:32.195Z,22.97
2022-12-06T07:24:55.771Z,19.43
2022-12-06T07:27:19.296Z,22.20
2022-12-06T07:29:42.928Z,23.00
2022-12-06T07:32:08.237Z,21.70
2022-12-06T07:34:32.489Z,17.37
2022-12-06T07:36:56.009Z,21.23
2022-12-06T07:39:19.674Z,21.43
2022-12-06T07:42:00.412Z,22.10
2022-12-06T07:45:01.354Z,23.20
2022-12-06T07:47:27.198Z,20.40
2022-12-06T07:49:53.763Z,21.90
2022-12-06T07:52:17.397Z,21.97
2022-12-06T07:54:41.539Z,23.37
2022-12-06T07:57:05.231Z,21.67
2022-12-06T07:59:29.015Z,23.77
2022-12-06T08:01:53.192Z,23.20
2022-12-06T08:04:18.560Z,25.77
2022-12-06T08:06:42.317Z,23.37
2022-12-06T08:09:06.760Z,22.47
2022-12-06T08:11:30.379Z,27.93
2022-12-06T08:13:53.874Z,25.23
2022-12-06T08:16:17.799Z,25.00
2022-12-06T08:18:41.714Z,24.47
2022-12-06T08:21:07.395Z,24.13
2022-12-06T08:23:34.451Z,24.07
2022-12-06T08:25:59.560Z,21.63
2022-12-06T08:28:23.059Z,29.17
2022-12-06T08:30:47.091Z,22.37
2022-12-06T08:33:10.608Z,21.40
2022-12-06T08:35:37.710Z,23.53
2022-12-06T08:38:02.590Z,24.87
2022-12-06T08:40:26.256Z,20.30
2022-12-06T08:42:49.846Z,19.47
2022-12-06T08:45:13.513Z,20.13
2022-12-06T08:47:37.085Z,18.20
2022-12-06T08:50:01.105Z,20.80
2022-12-06T08:52:24.899Z,20.53
2022-12-06T08:54:50.017Z,19.87
2022-12-06T08:57:13.533Z,18.00
2022-12-06T08:59:37.976Z,18.20
2022-12-06T09:02:01.632Z,18.90
2022-12-06T09:04:25.412Z,21.10
2022-12-06T09:06:48.992Z,17.80
2022-12-06T09:09:14.340Z,18.87
2022-12-06T09:11:40.270Z,16.20
2022-12-06T09:14:04.418Z,18.50
2022-12-06T09:16:28.056Z,19.20
2022-12-06T09:18:52.895Z,15.80
2022-12-06T09:21:19.280Z,18.03
2022-12-06T09:23:43.177Z,16.13
2022-12-06T09:26:08.666Z,15.63
2022-12-06T09:28:36.827Z,15.30
2022-12-06T09:31:00.477Z,16.00
2022-12-06T09:33:24.445Z,14.73
2022-12-06T09:35:48.601Z,13.07
2022-12-06T09:38:13.162Z,16.27
2022-12-06T09:40:45.957Z,12.97
2022-12-06T09:43:28.679Z,13.53
2022-12-06T09:46:12.727Z,13.43
2022-12-06T09:48:56.866Z,15.03
2022-12-06T09:51:37.140Z,14.73
2022-12-06T09:54:19.868Z,12.87
2022-12-06T09:56:52.024Z,13.40
2022-12-06T09:59:23.612Z,15.53
2022-12-06T10:02:13.076Z,13.87
2022-12-06T10:05:24.855Z,13.33
2022-12-06T10:08:00.201Z,14.33
2022-12-06T10:10:40.490Z,14.07
2022-12-06T10:13:13.393Z,15.97
2022-12-06T10:15:54.413Z,17.27
2022-12-06T10:18:36.458Z,17.13
2022-12-06T10:21:14.041Z,20.47
2022-12-06T10:24:01.678Z,18.53
2022-12-06T10:26:33.274Z,18.90
2022-12-06T10:29:09.954Z,21.93
2022-12-06T10:31:46.768Z,23.37
2022-12-06T10:34:22.029Z,21.30
2022-12-06T10:37:00.750Z,21.90
2022-12-06T10:39:30.167Z,20.27
2022-12-06T10:42:02.860Z,21.13
2022-12-06T10:44:34.524Z,19.23
2022-12-06T10:47:05.059Z,22.97
2022-12-06T10:49:41.739Z,24.17
2022-12-06T10:52:18.877Z,24.17
2022-12-06T10:54:49.526Z,19.83
2022-12-06T10:57:18.860Z,21.23
2022-12-06T10:59:51.824Z,23.73
2022-12-06T11:02:26.064Z,22.90
2022-12-06T11:04:52.222Z,24.13
2022-12-06T11:07:20.650Z,20.40
2022-12-06T11:09:47.970Z,22.43
2022-12-06T11:12:31.225Z,16.37
2022-12-06T11:15:04.584Z,18.27
2022-12-06T11:17:31.477Z,17.13
2022-12-06T11:20:03.210Z,16.97
2022-12-06T11:22:39.516Z,18.53
2022-12-06T11:25:15.668Z,17.73
2022-12-06T11:27:47.617Z,17.00
2022-12-06T11:30:20.350Z,18.27
2022-12-06T11:32:45.400Z,16.07
2022-12-06T11:35:18.022Z,14.97
2022-12-06T11:37:44.520Z,14.83
2022-12-06T11:40:21.736Z,12.43
2022-12-06T11:42:45.376Z,15.03
2022-12-06T11:45:17.026Z,15.50
2022-12-06T11:47:40.653Z,12.73
2022-12-06T11:50:10.056Z,13.33
2022-12-06T11:52:44.153Z,15.40
2022-12-06T11:55:17.482Z,10.67
2022-12-06T11:57:48.137Z,10.60
2022-12-06T12:00:17.704Z,10.43
2022-12-06T12:02:42.441Z,11.83
2022-12-06T12:05:12.501Z,9.70
2022-12-06T12:07:39.678Z,9.43
2022-12-06T12:10:25.615Z,8.53
2022-12-06T12:13:08.105Z,8.77
2022-12-06T12:15:31.814Z,8.43
2022-12-06T12:17:58.590Z,9.80
2022-12-06T12:20:28.209Z,9.03
2022-12-06T12:23:01.205Z,11.10
2022-12-06T12:25:28.429Z,10.83
2022-12-06T12:27:54.621Z,9.63
2022-12-06T12:30:32.092Z,9.83
2022-12-06T12:33:21.802Z,9.33
2022-12-06T12:35:48.203Z,10.63
2022-12-06T12:38:37.580Z,10.07
2022-12-06T12:41:03.782Z,9.17
2022-12-06T12:43:31.496Z,9.93
2022-12-06T12:46:18.971Z,9.93
2022-12-06T12:48:44.969Z,8.63
2022-12-06T12:51:33.460Z,10.93
2022-12-06T12:54:02.295Z,12.37
2022-12-06T12:56:27.142Z,9.83
2022-12-06T12:58:54.478Z,10.93
2022-12-06T13:01:37.466Z,13.13
2022-12-06T13:04:06.072Z,11.90
2022-12-06T13:06:37.319Z,11.13
2022-12-06T13:09:05.801Z,10.00
2022-12-06T13:11:30.897Z,14.03
2022-12-06T13:13:56.808Z,11.00
2022-12-06T13:16:30.068Z,12.40
2022-12-06T13:18:59.413Z,11.27
2022-12-06T13:21:26.725Z,11.00
2022-12-06T13:23:54.149Z,10.80
2022-12-06T13:26:26.756Z,11.70
2022-12-06T13:28:55.907Z,12.63
2022-12-06T13:31:24.385Z,12.73
2022-12-06T13:33:53.837Z,13.53
2022-12-06T13:36:18.714Z,11.83
2022-12-06T13:38:43.642Z,12.33
2022-12-06T13:41:08.672Z,15.63
2022-12-06T13:44:00.121Z,12.73
2022-12-06T13:46:28.234Z,12.33
2022-12-06T13:48:53.061Z,15.60
2022-12-06T13:51:50.619Z,13.97
2022-12-06T13:54:38.183Z,13.53
2022-12-06T13:57:22.126Z,12.53
2022-12-06T13:59:47.183Z,13.63
2022-12-06T14:02:53.771Z,14.03
2022-12-06T14:06:07.346Z,13.03
2022-12-06T14:08:39.466Z,13.50
2022-12-06T14:11:19.514Z,15.90
2022-12-06T14:13:45.351Z,15.47
2022-12-06T14:16:17.791Z,18.30
2022-12-06T14:18:43.280Z,15.40
2022-12-06T14:21:06.950Z,17.27
2022-12-06T14:23:33.836Z,17.50
2022-12-06T14:26:23.941Z,15.00
2022-12-06T14:28:48.437Z,14.60
2022-12-06T14:31:38.771Z,16.23
2022-12-06T14:34:02.454Z,16.53
2022-12-06T14:36:31.554Z,14.90
2022-12-06T14:39:03.065Z,16.90
2022-12-06T14:41:55.515Z,14.43
2022-12-06T14:44:20.932Z,19.07
2022-12-06T14:46:47.696Z,16.43
2022-12-06T14:49:35.632Z,17.70
2022-12-06T14:51:59.286Z,13.47
2022-12-06T14:54:36.079Z,14.73
2022-12-06T14:57:00.084Z,15.67
2022-12-06T15:00:13.098Z,14.47
2022-12-06T15:02:24.511Z,14.97
2022-12-06T15:04:48.186Z,17.60
2022-12-06T15:07:41.702Z,15.67
2022-12-06T15:10:23.375Z,14.77
2022-12-06T15:12:59.329Z,14.83
2022-12-06T15:15:41.967Z,14.27
2022-12-06T15:18:22.075Z,17.10
2022-12-06T15:20:45.759Z,15.70
2022-12-06T15:23:49.493Z,17.57
2022-12-06T15:26:14.018Z,13.07
2022-12-06T15:28:38.186Z,11.27
2022-12-06T15:31:01.837Z,20.77
2022-12-06T15:33:27.321Z,22.43
2022-12-06T15:35:51.819Z,26.20
2022-12-06T15:38:15.445Z,23.77
2022-12-06T15:40:43.941Z,30.47
2022-12-06T15:43:17.063Z,34.57
2022-12-06T15:45:40.720Z,23.47
2022-12-06T15:48:04.327Z,28.93
2022-12-06T15:50:29.362Z,62.37
2022-12-06T15:52:52.987Z,36.10
2022-12-06T15:55:18.578Z,17.70
2022-12-06T15:57:42.087Z,14.97
2022-12-06T16:00:07.575Z,16.77
2022-12-06T16:02:31.194Z,14.07
2022-12-06T16:04:54.793Z,16.20
2022-12-06T16:07:19.822Z,16.17
2022-12-06T16:09:43.440Z,17.70
2022-12-06T16:12:07.928Z,18.83
2022-12-06T16:14:33.063Z,17.57
2022-12-06T16:16:57.974Z,15.50
2022-12-06T16:19:22.851Z,18.67
2022-12-06T16:21:57.964Z,15.30
2022-12-06T16:24:23.236Z,13.37
2022-12-06T16:26:48.896Z,13.97
2022-12-06T16:29:17.142Z,14.90
2022-12-06T16:31:41.326Z,16.13
2022-12-06T16:34:05.323Z,16.57
2022-12-06T16:36:32.033Z,15.70
2022-12-06T16:38:57.747Z,15.83
2022-12-06T16:41:26.065Z,15.00
2022-12-06T16:43:50.200Z,20.20
2022-12-06T16:46:33.995Z,17.47
2022-12-06T16:49:22.275Z,15.77
2022-12-06T16:51:44.056Z,16.50
2022-12-06T16:54:07.880Z,15.20
2022-12-06T16:56:35.292Z,13.20
2022-12-06T16:59:01.306Z,13.47
2022-12-06T17:01:27.308Z,12.00
2022-12-06T17:03:56.324Z,13.27
2022-12-06T17:06:19.960Z,15.93
2022-12-06T17:08:43.487Z,12.53
2022-12-06T17:11:21.190Z,10.70
2022-12-06T17:13:46.152Z,11.97
2022-12-06T17:16:10.291Z,15.10
2022-12-06T17:18:33.874Z,12.03
2022-12-06T17:20:57.384Z,12.60
2022-12-06T17:23:20.951Z,13.97
2022-12-06T17:25:44.465Z,12.93
2022-12-06T17:28:08.071Z,14.87
2022-12-06T17:30:33.735Z,14.47
2022-12-06T17:32:57.282Z,15.47
2022-12-06T17:35:20.812Z,20.43
2022-12-06T17:37:44.395Z,16.97
2022-12-06T17:40:09.952Z,20.07
2022-12-06T17:42:50.688Z,17.33
2022-12-06T17:45:14.286Z,20.67
2022-12-06T17:47:39.958Z,20.47
2022-12-06T17:50:04.507Z,19.80
2022-12-06T17:52:28.327Z,29.00
2022-12-06T17:54:52.013Z,23.27
2022-12-06T17:57:18.252Z,26.70
2022-12-06T17:59:42.118Z,28.17
2022-12-06T18:02:15.135Z,28.70
2022-12-06T18:04:40.481Z,25.27
2022-12-06T18:07:04.007Z,30.07
2022-12-06T18:09:27.802Z,29.17
2022-12-06T18:11:51.791Z,29.97
2022-12-06T18:14:15.596Z,30.77
2022-12-06T18:16:41.848Z,28.20
2022-12-06T18:19:08.888Z,25.10
2022-12-06T18:21:36.446Z,32.97
2022-12-06T18:24:21.054Z,35.97
2022-12-06T18:26:43.804Z,34.00
2022-12-06T18:29:09.345Z,35.23
2022-12-06T18:31:35.078Z,31.57
2022-12-06T18:33:59.950Z,33.97
2022-12-06T18:36:23.554Z,30.03
2022-12-06T18:38:49.425Z,28.40
2022-12-06T18:41:15.426Z,29.97
2022-12-06T18:43:39.310Z,28.63
2022-12-06T18:46:05.654Z,35.23
2022-12-06T18:48:29.953Z,29.40
2022-12-06T18:50:53.690Z,29.43
2022-12-06T18:53:17.967Z,35.17
2022-12-06T18:55:44.911Z,35.07
2022-12-06T18:58:08.429Z,33.87
2022-12-06T19:00:32.018Z,35.80
2022-12-06T19:02:55.549Z,28.77
2022-12-06T19:05:33.023Z,32.63
2022-12-06T19:08:03.150Z,32.93
2022-12-06T19:10:26.981Z,32.23
2022-12-06T19:12:51.981Z,34.60
2022-12-06T19:15:15.727Z,34.03
2022-12-06T19:17:43.120Z,32.87
2022-12-06T19:20:08.522Z,33.97
2022-12-06T19:22:32.286Z,30.40
2022-12-06T19:24:55.781Z,34.70
2022-12-06T19:27:20.786Z,34.50
2022-12-06T19:29:45.899Z,35.90
2022-12-06T19:32:11.305Z,32.97
2022-12-06T19:34:34.831Z,35.10
2022-12-06T19:36:58.455Z,36.43
2022-12-06T19:39:22.987Z,35.57
2022-12-06T19:42:04.354Z,34.63
2022-12-06T19:44:28.759Z,33.93
2022-12-06T19:46:53.974Z,37.93
2022-12-06T19:49:20.853Z,32.93
2022-12-06T19:51:47.247Z,35.27
2022-12-06T19:54:13.230Z,34.50
2022-12-06T19:56:38.697Z,33.00
2022-12-06T19:59:11.313Z,33.83
2022-12-06T20:01:35.214Z,40.30
2022-12-06T20:04:00.260Z,34.60
2022-12-06T20:06:26.386Z,35.87
2022-12-06T20:08:51.431Z,35.87
2022-12-06T20:11:35.234Z,35.27
2022-12-06T20:14:01.550Z,29.63
2022-12-06T20:16:25.239Z,32.13
2022-12-06T20:18:48.985Z,31.53
2022-12-06T20:21:14.423Z,34.67
2022-12-06T20:23:38.320Z,26.07
2022-12-06T20:26:02.253Z,30.17
2022-12-06T20:28:25.947Z,29.70
2022-12-06T20:30:49.606Z,25.87
2022-12-06T20:33:13.734Z,26.23
2022-12-06T20:35:38.720Z,27.67
2022-12-06T20:38:03.934Z,25.97
2022-12-06T20:40:31.374Z,31.13
2022-12-06T20:42:55.529Z,32.50
2022-12-06T20:45:20.588Z,37.67
2022-12-06T20:47:44.472Z,39.87
2022-12-06T20:50:09.614Z,35.57
2022-12-06T20:52:33.370Z,37.73
2022-12-06T20:54:58.288Z,35.70
2022-12-06T20:57:22.070Z,36.23
2022-12-06T20:59:45.570Z,36.50
2022-12-06T21:02:12.131Z,31.57
2022-12-06T21:04:35.697Z,34.97
2022-12-06T21:07:00.038Z,36.93
2022-12-06T21:09:23.956Z,34.90
2022-12-06T21:11:49.369Z,26.77
2022-12-06T21:14:14.805Z,34.50
2022-12-06T21:16:38.610Z,27.37
2022-12-06T21:19:05.413Z,27.67
2022-12-06T21:21:34.506Z,32.33
2022-12-06T21:24:00.829Z,29.70
2022-12-06T21:26:24.421Z,30.47
2022-12-06T21:28:49.492Z,28.97
2022-12-06T21:31:13.197Z,22.63
2022-12-06T21:33:36.872Z,27.67
2022-12-06T21:36:04.120Z,30.70
2022-12-06T21:38:30.688Z,31.40
2022-12-06T21:40:58.684Z,27.33
2022-12-06T21:43:25.087Z,25.73
2022-12-06T21:45:50.072Z,25.87
2022-12-06T21:48:13.871Z,23.33
2022-12-06T21:50:37.958Z,22.27
2022-12-06T21:53:01.719Z,25.97
2022-12-06T21:55:25.570Z,21.80
2022-12-06T21:57:49.509Z,22.53
2022-12-06T22:00:15.506Z,19.83
2022-12-06T22:02:40.581Z,20.87
2022-12-06T22:05:04.223Z,17.10
2022-12-06T22:07:27.864Z,20.13
2022-12-06T22:09:52.334Z,16.70
2022-12-06T22:12:16.447Z,15.97
2022-12-06T22:14:39.944Z,11.83
2022-12-06T22:17:03.846Z,11.13
2022-12-06T22:19:29.084Z,10.87
2022-12-06T22:21:55.632Z,10.77
2022-12-06T22:24:19.164Z,9.90
2022-12-06T22:26:43.006Z,9.27
2022-12-06T22:29:06.837Z,10.53
2022-12-06T22:31:33.630Z,10.00
2022-12-06T22:33:58.907Z,10.07
2022-12-06T22:36:24.843Z,10.83
2022-12-06T22:38:50.010Z,11.13
2022-12-06T22:41:13.574Z,13.27
2022-12-06T22:43:38.115Z,12.37
2022-12-06T22:46:06.967Z,13.03
2022-12-06T22:48:31.082Z,13.20
2022-12-06T22:50:54.700Z,12.87
2022-12-06T22:53:19.577Z,13.27
2022-12-06T22:55:43.154Z,14.70
2022-12-06T22:58:06.688Z,17.27
2022-12-06T23:00:30.486Z,19.40
2022-12-06T23:02:54.056Z,24.63
2022-12-06T23:05:17.680Z,21.53
2022-12-06T23:07:41.824Z,25.30
2022-12-06T23:10:08.887Z,29.20
2022-12-06T23:12:32.515Z,37.20
2022-12-06T23:14:56.072Z,32.27
2022-12-06T23:17:19.727Z,32.77
2022-12-06T23:19:43.342Z,34.17
2022-12-06T23:22:06.861Z,30.97
2022-12-06T23:24:30.490Z,30.60
2022-12-06T23:26:58.128Z,31.90
2022-12-06T23:29:22.153Z,28.20
2022-12-06T23:31:47.705Z,30.47
2022-12-06T23:34:15.029Z,32.90
2022-12-06T23:36:38.577Z,29.47
2022-12-06T23:39:02.197Z,27.53
2022-12-06T23:41:29.026Z,29.23
2022-12-06T23:43:54.953Z,25.50
2022-12-06T23:46:22.539Z,30.07
2022-12-06T23:48:46.724Z,25.40
2022-12-06T23:51:13.061Z,27.20
2022-12-06T23:53:36.989Z,26.27
2022-12-06T23:56:00.956Z,23.10
2022-12-06T23:58:24.530Z,20.40
